Terminal Aerodrome Forecast
Issued by NWS St Louis, MO

Home | Current Version | Previous Version | Text Only | Print | Product List | Glossary On
Versions: 1 2 3 4 5 6 7 8 9 10 11 12 13 14
000
FTUS43 KLSX 221611 AAB
TAFCOU
TAF AMD
KCOU 221611Z 2216/2312 16012KT P6SM BKN018
     FM221800 17011KT P6SM BKN025
     FM230100 18007KT P6SM BKN070
     FM231100 30007KT P6SM VCSH BKN025=

USA.gov is the U.S. government's official web portal to all federal, state and local government web resources and services.